LOWS

Salzburg Airport

Salzburg, Austria
TAF AMD LOWS 190700Z 1907/2006 VRB02KT 0300 FG BKN002 TX16/1914Z TN05/1907Z BECMG 1907/1909 CAVOK TEMPO 1912/1916 02006KT 9999 FEW040 SCT120 TEMPO 1921/2006 4000 BR FEW002 PROB40 TEMPO 2002/2006 0500 FG BKN002
Issued Valid From Valid To
Oct-19 @ 07:00 UTC
(3 hours ago)
Oct-19 @ 07:00 UTC
(3 hours ago)
Oct-20 @ 06:00 UTC
(in 20 hours)
Oct-19 @ 07:00 to Oct-20 @ 06:00
TAF AMD LOWS 190700Z 1907/2006 VRB02KT 0300 FG BKN002 TX16/1914Z TN05/1907Z
Wind Visibility Clouds Conditions
Variable at 2 knots 306 meters
  • Broken at 200' AGL
  • Fog
Becoming Oct-19 @ 07:00 to Oct-20 @ 06:00
BECMG 1907/1909 CAVOK
Wind Visibility Clouds Conditions
Variable at 2 knots 10,000+ meters
  • No significant clouds
Temporary Oct-19 @ 12:00 to Oct-19 @ 16:00
TEMPO 1912/1916 02006KT 9999 FEW040 SCT120
Wind Visibility Clouds
20° at 6 knots 10,000+ meters
  • Few at 4,000' AGL
  • Scattered at 12,000' AGL
Temporary Oct-19 @ 21:00 to Oct-20 @ 06:00
TEMPO 1921/2006 4000 BR FEW002
Visibility Clouds Conditions
4,007 meters
  • Few at 200' AGL
  • Mist
Temporary  (Probability 40%) Oct-20 @ 02:00 to Oct-20 @ 06:00
PROB40 TEMPO 2002/2006 0500 FG BKN002
Visibility Clouds Conditions
499 meters
  • Broken at 200' AGL
  • Fog
TAF AMD LOWS 190700Z 1907/2006 VRB02KT 0300 FG BKN002 TX16/1914Z TN05/1907Z BECMG 1907/1909 CAVOK TEMPO 1912/1916 02006KT 9999 FEW040 SCT120 TEMPO 1921/2006 4000 BR FEW002 PROB40 TEMPO 2002/2006 0500 FG BKN002
Issued Oct-19 @ 07:00 UTC
(3 hours ago)
Valid From Oct-19 @ 07:00 UTC
(3 hours ago)
Valid To Oct-20 @ 06:00 UTC
(in 20 hours)
Oct-19 @ 07:00 - Oct-20 @ 06:00
Wind Visibility
Variable at 2 knots 306 meters
Clouds
  • Broken at 200' AGL
Conditions
  • Fog
Becoming Oct-19 @ 07:00 - Oct-20 @ 06:00
Wind Visibility
Variable at 2 knots 10,000+ meters
Clouds
  • No significant clouds
Conditions
Temporary Oct-19 @ 12:00 - Oct-19 @ 16:00
Wind Visibility
20° at 6 knots 10,000+ meters
Clouds
  • Few at 4,000' AGL
  • Scattered at 12,000' AGL
Temporary Oct-19 @ 21:00 - Oct-20 @ 06:00
Clouds
  • Few at 200' AGL
Conditions
  • Mist
Probability 40% Temporary Oct-20 @ 02:00 - Oct-20 @ 06:00
Clouds
  • Broken at 200' AGL
Conditions
  • Fog